sensor_id;sensor_type;location;lat;lon;timestamp;pressure;altitude;pressure_sealevel;temperature;humidity
74403;BME280;62837;51.082;13.744;2023-04-29T00:02:09;99840.45;;;12.62;70.02
74403;BME280;62837;51.082;13.744;2023-04-29T00:04:40;99842.28;;;12.63;70.03
74403;BME280;62837;51.082;13.744;2023-04-29T00:07:11;99835.05;;;12.64;70.16
74403;BME280;62837;51.082;13.744;2023-04-29T00:09:43;99832.23;;;12.63;70.26
74403;BME280;62837;51.082;13.744;2023-04-29T00:12:14;99831.96;;;12.64;70.21
74403;BME280;62837;51.082;13.744;2023-04-29T00:14:45;99833.20;;;12.65;70.32
74403;BME280;62837;51.082;13.744;2023-04-29T00:17:15;99831.20;;;12.66;70.33
74403;BME280;62837;51.082;13.744;2023-04-29T00:19:46;99834.90;;;12.68;70.47
74403;BME280;62837;51.082;13.744;2023-04-29T00:22:19;99831.81;;;12.69;70.31
74403;BME280;62837;51.082;13.744;2023-04-29T00:24:51;99828.42;;;12.71;70.37
74403;BME280;62837;51.082;13.744;2023-04-29T00:27:22;99824.55;;;12.72;70.42
74403;BME280;62837;51.082;13.744;2023-04-29T00:29:53;99825.91;;;12.70;70.51
74403;BME280;62837;51.082;13.744;2023-04-29T00:32:25;99823.55;;;12.70;70.58
74403;BME280;62837;51.082;13.744;2023-04-29T00:34:56;99821.52;;;12.71;70.59
74403;BME280;62837;51.082;13.744;2023-04-29T00:37:27;99818.60;;;12.73;70.54
74403;BME280;62837;51.082;13.744;2023-04-29T00:39:58;99815.60;;;12.74;70.48
74403;BME280;62837;51.082;13.744;2023-04-29T00:42:29;99815.27;;;12.74;70.52
74403;BME280;62837;51.082;13.744;2023-04-29T00:44:59;99810.54;;;12.73;70.59
74403;BME280;62837;51.082;13.744;2023-04-29T00:47:31;99804.58;;;12.71;70.69
74403;BME280;62837;51.082;13.744;2023-04-29T00:50:01;99803.79;;;12.70;70.77
74403;BME280;62837;51.082;13.744;2023-04-29T00:52:33;99805.01;;;12.68;70.90
74403;BME280;62837;51.082;13.744;2023-04-29T00:55:06;99809.58;;;12.68;70.83
74403;BME280;62837;51.082;13.744;2023-04-29T00:57:37;99808.77;;;12.69;70.93
74403;BME280;62837;51.082;13.744;2023-04-29T01:00:09;99806.93;;;12.69;70.82
74403;BME280;62837;51.082;13.744;2023-04-29T01:02:41;99813.77;;;12.70;70.91
74403;BME280;62837;51.082;13.744;2023-04-29T01:05:12;99815.84;;;12.71;70.94
74403;BME280;62837;51.082;13.744;2023-04-29T01:07:51;99814.84;;;12.73;70.80
74403;BME280;62837;51.082;13.744;2023-04-29T01:10:30;99815.06;;;12.73;70.79
74403;BME280;62837;51.082;13.744;2023-04-29T01:13:08;99811.09;;;12.72;70.78
74403;BME280;62837;51.082;13.744;2023-04-29T01:15:45;99803.97;;;12.72;70.67
74403;BME280;62837;51.082;13.744;2023-04-29T01:18:28;99806.52;;;12.71;70.76
74403;BME280;62837;51.082;13.744;2023-04-29T01:21:02;99807.71;;;12.70;70.86
74403;BME280;62837;51.082;13.744;2023-04-29T01:23:33;99806.21;;;12.69;70.72
74403;BME280;62837;51.082;13.744;2023-04-29T01:26:04;99805.55;;;12.67;70.71
74403;BME280;62837;51.082;13.744;2023-04-29T01:29:25;99806.72;;;12.66;70.80
74403;BME280;62837;51.082;13.744;2023-04-29T01:32:04;99810.77;;;12.65;70.77
74403;BME280;62837;51.082;13.744;2023-04-29T01:34:43;99811.11;;;12.64;70.94
74403;BME280;62837;51.082;13.744;2023-04-29T01:37:21;99810.77;;;12.63;70.92
74403;BME280;62837;51.082;13.744;2023-04-29T01:40:04;99814.86;;;12.62;70.98
74403;BME280;62837;51.082;13.744;2023-04-29T01:42:46;99823.41;;;12.63;71.12
74403;BME280;62837;51.082;13.744;2023-04-29T01:45:21;99827.10;;;12.63;71.25
74403;BME280;62837;51.082;13.744;2023-04-29T01:47:53;99832.92;;;12.61;71.57
74403;BME280;62837;51.082;13.744;2023-04-29T01:50:23;99834.73;;;12.53;72.00
74403;BME280;62837;51.082;13.744;2023-04-29T01:52:55;99830.86;;;12.44;72.37
74403;BME280;62837;51.082;13.744;2023-04-29T01:55:27;99830.98;;;12.35;72.53
74403;BME280;62837;51.082;13.744;2023-04-29T01:58:17;99830.94;;;12.31;72.97
74403;BME280;62837;51.082;13.744;2023-04-29T02:00:50;99842.77;;;12.24;73.17
74403;BME280;62837;51.082;13.744;2023-04-29T02:03:21;99843.52;;;12.19;73.45
74403;BME280;62837;51.082;13.744;2023-04-29T02:05:56;99845.81;;;12.13;73.98
74403;BME280;62837;51.082;13.744;2023-04-29T02:08:27;99848.54;;;12.04;74.34
74403;BME280;62837;51.082;13.744;2023-04-29T02:10:59;99847.83;;;12.01;74.66
74403;BME280;62837;51.082;13.744;2023-04-29T02:13:40;99853.02;;;12.01;74.75
74403;BME280;62837;51.082;13.744;2023-04-29T02:16:13;99854.32;;;12.06;74.76
74403;BME280;62837;51.082;13.744;2023-04-29T02:18:48;99852.11;;;12.08;74.78
74403;BME280;62837;51.082;13.744;2023-04-29T02:21:19;99854.39;;;12.16;74.83
74403;BME280;62837;51.082;13.744;2023-04-29T02:23:49;99853.05;;;12.20;74.78
74403;BME280;62837;51.082;13.744;2023-04-29T02:26:24;99844.94;;;12.24;75.11
74403;BME280;62837;51.082;13.744;2023-04-29T02:28:56;99840.42;;;12.19;75.13
74403;BME280;62837;51.082;13.744;2023-04-29T02:31:28;99837.51;;;12.20;75.09
74403;BME280;62837;51.082;13.744;2023-04-29T02:33:59;99822.93;;;12.23;75.13
74403;BME280;62837;51.082;13.744;2023-04-29T02:36:30;99835.05;;;12.25;75.02
74403;BME280;62837;51.082;13.744;2023-04-29T02:39:01;99841.84;;;12.25;75.15
74403;BME280;62837;51.082;13.744;2023-04-29T02:41:31;99849.05;;;12.26;75.03
74403;BME280;62837;51.082;13.744;2023-04-29T02:44:02;99846.77;;;12.28;74.97
74403;BME280;62837;51.082;13.744;2023-04-29T02:46:33;99845.61;;;12.30;75.04
74403;BME280;62837;51.082;13.744;2023-04-29T02:49:04;99839.03;;;12.34;74.90
74403;BME280;62837;51.082;13.744;2023-04-29T02:51:36;99829.14;;;12.38;75.06
74403;BME280;62837;51.082;13.744;2023-04-29T02:54:07;99822.81;;;12.42;75.02
74403;BME280;62837;51.082;13.744;2023-04-29T02:56:37;99827.06;;;12.44;74.98
74403;BME280;62837;51.082;13.744;2023-04-29T02:59:08;99828.77;;;12.45;74.96
74403;BME280;62837;51.082;13.744;2023-04-29T03:01:39;99826.71;;;12.46;74.94
74403;BME280;62837;51.082;13.744;2023-04-29T03:04:10;99833.33;;;12.47;74.88
74403;BME280;62837;51.082;13.744;2023-04-29T03:06:41;99835.36;;;12.48;74.89
74403;BME280;62837;51.082;13.744;2023-04-29T03:09:12;99832.99;;;12.48;74.90
74403;BME280;62837;51.082;13.744;2023-04-29T03:11:45;99826.14;;;12.49;74.95
74403;BME280;62837;51.082;13.744;2023-04-29T03:14:16;99824.14;;;12.54;74.89
74403;BME280;62837;51.082;13.744;2023-04-29T03:16:48;99820.25;;;12.56;74.97
74403;BME280;62837;51.082;13.744;2023-04-29T03:19:19;99813.46;;;12.56;75.00
74403;BME280;62837;51.082;13.744;2023-04-29T03:21:51;99810.88;;;12.57;74.99
74403;BME280;62837;51.082;13.744;2023-04-29T03:24:23;99810.48;;;12.57;75.18
74403;BME280;62837;51.082;13.744;2023-04-29T03:26:53;99810.17;;;12.54;75.20
74403;BME280;62837;51.082;13.744;2023-04-29T03:29:24;99812.94;;;12.54;75.17
74403;BME280;62837;51.082;13.744;2023-04-29T03:31:56;99812.61;;;12.53;75.21
74403;BME280;62837;51.082;13.744;2023-04-29T03:34:26;99818.17;;;12.55;75.23
74403;BME280;62837;51.082;13.744;2023-04-29T03:37:12;99813.19;;;12.58;75.06
74403;BME280;62837;51.082;13.744;2023-04-29T03:39:47;99811.05;;;12.61;75.11
74403;BME280;62837;51.082;13.744;2023-04-29T03:42:18;99810.42;;;12.65;75.10
74403;BME280;62837;51.082;13.744;2023-04-29T03:44:48;99808.20;;;12.68;75.06
74403;BME280;62837;51.082;13.744;2023-04-29T03:47:19;99806.45;;;12.67;75.09
74403;BME280;62837;51.082;13.744;2023-04-29T03:49:50;99807.16;;;12.66;75.11
74403;BME280;62837;51.082;13.744;2023-04-29T03:52:22;99809.86;;;12.66;75.13
74403;BME280;62837;51.082;13.744;2023-04-29T03:54:54;99804.12;;;12.66;75.11
74403;BME280;62837;51.082;13.744;2023-04-29T03:57:24;99805.00;;;12.67;75.13
74403;BME280;62837;51.082;13.744;2023-04-29T03:59:56;99804.23;;;12.70;75.17
74403;BME280;62837;51.082;13.744;2023-04-29T04:02:26;99804.91;;;12.65;75.42
74403;BME280;62837;51.082;13.744;2023-04-29T04:04:58;99805.27;;;12.62;75.43
74403;BME280;62837;51.082;13.744;2023-04-29T04:07:29;99804.17;;;12.61;75.38
74403;BME280;62837;51.082;13.744;2023-04-29T04:10:18;99809.63;;;12.63;75.47
74403;BME280;62837;51.082;13.744;2023-04-29T04:12:49;99812.96;;;12.65;75.45
74403;BME280;62837;51.082;13.744;2023-04-29T04:15:20;99813.55;;;12.61;76.06
74403;BME280;62837;51.082;13.744;2023-04-29T04:17:51;99813.50;;;12.51;76.36
74403;BME280;62837;51.082;13.744;2023-04-29T04:20:22;99812.42;;;12.47;76.12
74403;BME280;62837;51.082;13.744;2023-04-29T04:22:53;99815.39;;;12.49;76.33
74403;BME280;62837;51.082;13.744;2023-04-29T04:25:27;99819.87;;;12.49;76.23
74403;BME280;62837;51.082;13.744;2023-04-29T04:28:05;99823.09;;;12.52;76.48
74403;BME280;62837;51.082;13.744;2023-04-29T04:30:57;99820.30;;;12.58;76.25
74403;BME280;62837;51.082;13.744;2023-04-29T04:33:28;99818.23;;;12.64;76.13
74403;BME280;62837;51.082;13.744;2023-04-29T04:36:00;99817.58;;;12.69;76.29
74403;BME280;62837;51.082;13.744;2023-04-29T04:38:31;99820.10;;;12.70;76.31
74403;BME280;62837;51.082;13.744;2023-04-29T04:41:03;99822.13;;;12.65;76.56
74403;BME280;62837;51.082;13.744;2023-04-29T04:43:37;99822.02;;;12.57;76.85
74403;BME280;62837;51.082;13.744;2023-04-29T04:46:16;99822.15;;;12.52;76.83
74403;BME280;62837;51.082;13.744;2023-04-29T04:49:00;99819.36;;;12.50;76.79
74403;BME280;62837;51.082;13.744;2023-04-29T04:51:31;99827.03;;;12.57;77.01
74403;BME280;62837;51.082;13.744;2023-04-29T04:54:02;99826.42;;;12.57;77.17
74403;BME280;62837;51.082;13.744;2023-04-29T04:56:33;99824.60;;;12.59;77.15
74403;BME280;62837;51.082;13.744;2023-04-29T04:59:06;99829.15;;;12.62;77.05
74403;BME280;62837;51.082;13.744;2023-04-29T05:01:38;99832.75;;;12.60;77.78
74403;BME280;62837;51.082;13.744;2023-04-29T05:04:09;99835.61;;;12.53;77.82
74403;BME280;62837;51.082;13.744;2023-04-29T05:06:40;99831.91;;;12.53;77.62
74403;BME280;62837;51.082;13.744;2023-04-29T05:09:11;99829.98;;;12.53;78.20
74403;BME280;62837;51.082;13.744;2023-04-29T05:11:42;99836.32;;;12.53;77.79
74403;BME280;62837;51.082;13.744;2023-04-29T05:14:15;99832.01;;;12.56;77.68
74403;BME280;62837;51.082;13.744;2023-04-29T05:16:46;99836.48;;;12.63;78.00
74403;BME280;62837;51.082;13.744;2023-04-29T05:19:17;99840.84;;;12.65;78.10
74403;BME280;62837;51.082;13.744;2023-04-29T05:21:49;99840.36;;;12.67;78.12
74403;BME280;62837;51.082;13.744;2023-04-29T05:24:20;99840.59;;;12.67;78.12
74403;BME280;62837;51.082;13.744;2023-04-29T05:26:51;99845.05;;;12.70;77.66
74403;BME280;62837;51.082;13.744;2023-04-29T05:29:22;99844.30;;;12.74;77.57
74403;BME280;62837;51.082;13.744;2023-04-29T05:31:57;99840.05;;;12.75;77.60
74403;BME280;62837;51.082;13.744;2023-04-29T05:34:28;99848.86;;;12.83;77.69
74403;BME280;62837;51.082;13.744;2023-04-29T05:36:59;99848.78;;;12.88;77.45
74403;BME280;62837;51.082;13.744;2023-04-29T05:39:31;99846.46;;;12.94;77.33
74403;BME280;62837;51.082;13.744;2023-04-29T05:42:09;99847.45;;;13.01;77.20
74403;BME280;62837;51.082;13.744;2023-04-29T05:44:45;99848.46;;;13.08;77.61
74403;BME280;62837;51.082;13.744;2023-04-29T05:47:16;99851.80;;;13.12;77.42
74403;BME280;62837;51.082;13.744;2023-04-29T05:49:47;99855.48;;;13.15;77.56
74403;BME280;62837;51.082;13.744;2023-04-29T05:52:18;99856.68;;;13.17;77.49
74403;BME280;62837;51.082;13.744;2023-04-29T05:54:50;99860.26;;;13.19;77.45
74403;BME280;62837;51.082;13.744;2023-04-29T05:57:20;99861.98;;;13.25;77.28
74403;BME280;62837;51.082;13.744;2023-04-29T05:59:51;99864.35;;;13.37;77.15
74403;BME280;62837;51.082;13.744;2023-04-29T06:02:23;99860.84;;;13.53;76.98
74403;BME280;62837;51.082;13.744;2023-04-29T06:04:54;99860.91;;;13.72;77.00
74403;BME280;62837;51.082;13.744;2023-04-29T06:07:41;99861.61;;;13.88;77.64
74403;BME280;62837;51.082;13.744;2023-04-29T06:10:32;99863.64;;;13.98;77.36
74403;BME280;62837;51.082;13.744;2023-04-29T06:13:05;99867.31;;;14.02;77.04
74403;BME280;62837;51.082;13.744;2023-04-29T06:15:36;99869.20;;;14.06;76.69
74403;BME280;62837;51.082;13.744;2023-04-29T06:18:07;99867.55;;;14.11;76.44
74403;BME280;62837;51.082;13.744;2023-04-29T06:20:37;99871.17;;;14.17;76.05
74403;BME280;62837;51.082;13.744;2023-04-29T06:23:08;99873.27;;;14.25;75.77
74403;BME280;62837;51.082;13.744;2023-04-29T06:25:39;99877.19;;;14.31;75.77
74403;BME280;62837;51.082;13.744;2023-04-29T06:28:11;99877.41;;;14.37;75.85
74403;BME280;62837;51.082;13.744;2023-04-29T06:30:42;99878.26;;;14.40;76.42
74403;BME280;62837;51.082;13.744;2023-04-29T06:33:14;99878.87;;;14.45;76.11
74403;BME280;62837;51.082;13.744;2023-04-29T06:35:45;99879.02;;;14.50;76.15
74403;BME280;62837;51.082;13.744;2023-04-29T06:38:53;99884.52;;;14.60;76.32
74403;BME280;62837;51.082;13.744;2023-04-29T06:41:52;99882.73;;;14.69;76.24
74403;BME280;62837;51.082;13.744;2023-04-29T06:44:42;99881.37;;;14.71;75.80
74403;BME280;62837;51.082;13.744;2023-04-29T06:47:31;99886.77;;;14.69;75.81
74403;BME280;62837;51.082;13.744;2023-04-29T06:50:13;99887.42;;;14.62;75.85
74403;BME280;62837;51.082;13.744;2023-04-29T06:52:45;99882.11;;;14.54;75.86
74403;BME280;62837;51.082;13.744;2023-04-29T06:55:16;99890.17;;;14.52;76.00
74403;BME280;62837;51.082;13.744;2023-04-29T06:57:47;99893.44;;;14.47;76.06
74403;BME280;62837;51.082;13.744;2023-04-29T07:00:18;99891.17;;;14.43;76.17
74403;BME280;62837;51.082;13.744;2023-04-29T07:02:51;99893.42;;;14.40;76.35
74403;BME280;62837;51.082;13.744;2023-04-29T07:05:22;99893.67;;;14.38;76.65
74403;BME280;62837;51.082;13.744;2023-04-29T07:07:52;99895.82;;;14.32;76.84
74403;BME280;62837;51.082;13.744;2023-04-29T07:10:23;99900.58;;;14.27;76.49
74403;BME280;62837;51.082;13.744;2023-04-29T07:12:56;99901.70;;;14.22;76.49
74403;BME280;62837;51.082;13.744;2023-04-29T07:15:33;99902.79;;;14.24;76.42
74403;BME280;62837;51.082;13.744;2023-04-29T07:18:05;99909.98;;;14.22;76.60
74403;BME280;62837;51.082;13.744;2023-04-29T07:20:38;99907.66;;;14.21;76.43
74403;BME280;62837;51.082;13.744;2023-04-29T07:23:08;99908.60;;;14.32;76.01
74403;BME280;62837;51.082;13.744;2023-04-29T07:25:40;99908.84;;;14.37;75.73
74403;BME280;62837;51.082;13.744;2023-04-29T07:28:11;99912.02;;;14.33;75.99
74403;BME280;62837;51.082;13.744;2023-04-29T07:30:41;99913.35;;;14.23;76.63
74403;BME280;62837;51.082;13.744;2023-04-29T07:33:12;99917.34;;;14.11;76.71
74403;BME280;62837;51.082;13.744;2023-04-29T07:35:43;99922.74;;;14.05;77.47
74403;BME280;62837;51.082;13.744;2023-04-29T07:38:14;99925.50;;;14.00;77.83
74403;BME280;62837;51.082;13.744;2023-04-29T07:40:45;99927.63;;;13.98;78.43
74403;BME280;62837;51.082;13.744;2023-04-29T07:43:16;99923.47;;;13.93;78.36
74403;BME280;62837;51.082;13.744;2023-04-29T07:45:46;99932.95;;;13.96;78.68
74403;BME280;62837;51.082;13.744;2023-04-29T07:48:17;99937.69;;;13.98;78.81
74403;BME280;62837;51.082;13.744;2023-04-29T07:50:49;99940.04;;;14.00;78.78
74403;BME280;62837;51.082;13.744;2023-04-29T07:53:20;99944.19;;;13.99;78.72
74403;BME280;62837;51.082;13.744;2023-04-29T07:55:52;99945.49;;;13.97;78.66
74403;BME280;62837;51.082;13.744;2023-04-29T07:58:24;99947.27;;;13.91;78.46
74403;BME280;62837;51.082;13.744;2023-04-29T08:00:55;99952.78;;;13.86;78.50
74403;BME280;62837;51.082;13.744;2023-04-29T08:03:27;99953.33;;;13.82;78.50
74403;BME280;62837;51.082;13.744;2023-04-29T08:06:02;99956.58;;;13.78;78.60
74403;BME280;62837;51.082;13.744;2023-04-29T08:08:33;99958.33;;;13.74;78.34
74403;BME280;62837;51.082;13.744;2023-04-29T08:11:04;99962.75;;;13.73;78.34
74403;BME280;62837;51.082;13.744;2023-04-29T08:13:39;99956.95;;;13.73;78.52
74403;BME280;62837;51.082;13.744;2023-04-29T08:16:09;99959.93;;;13.79;78.71
74403;BME280;62837;51.082;13.744;2023-04-29T08:18:41;99965.14;;;13.94;78.78
74403;BME280;62837;51.082;13.744;2023-04-29T08:21:12;99966.85;;;14.16;78.93
74403;BME280;62837;51.082;13.744;2023-04-29T08:23:43;99965.57;;;14.33;78.67
74403;BME280;62837;51.082;13.744;2023-04-29T08:26:13;99967.17;;;14.44;78.43
74403;BME280;62837;51.082;13.744;2023-04-29T08:28:44;99967.13;;;14.49;77.48
74403;BME280;62837;51.082;13.744;2023-04-29T08:31:18;99967.83;;;14.50;77.22
74403;BME280;62837;51.082;13.744;2023-04-29T08:33:49;99966.18;;;14.49;76.59
74403;BME280;62837;51.082;13.744;2023-04-29T08:36:20;99971.51;;;14.48;76.04
74403;BME280;62837;51.082;13.744;2023-04-29T08:38:51;99984.02;;;14.43;75.98
74403;BME280;62837;51.082;13.744;2023-04-29T08:41:21;99985.08;;;14.35;75.97
74403;BME280;62837;51.082;13.744;2023-04-29T08:43:53;99984.63;;;14.25;75.78
74403;BME280;62837;51.082;13.744;2023-04-29T08:46:26;99991.39;;;14.17;75.70
74403;BME280;62837;51.082;13.744;2023-04-29T08:48:58;99994.38;;;14.14;75.98
74403;BME280;62837;51.082;13.744;2023-04-29T08:51:29;99990.13;;;14.11;76.28
74403;BME280;62837;51.082;13.744;2023-04-29T08:54:00;99995.65;;;14.06;76.10
74403;BME280;62837;51.082;13.744;2023-04-29T08:56:31;99996.08;;;14.02;75.94
74403;BME280;62837;51.082;13.744;2023-04-29T08:59:03;99999.33;;;13.98;75.93
74403;BME280;62837;51.082;13.744;2023-04-29T09:01:36;100003.92;;;13.97;75.80
74403;BME280;62837;51.082;13.744;2023-04-29T09:04:18;100005.96;;;13.92;75.97
74403;BME280;62837;51.082;13.744;2023-04-29T09:06:51;100008.14;;;13.90;76.16
74403;BME280;62837;51.082;13.744;2023-04-29T09:09:22;100012.14;;;13.88;76.46
74403;BME280;62837;51.082;13.744;2023-04-29T09:11:53;100019.54;;;13.89;76.37
74403;BME280;62837;51.082;13.744;2023-04-29T09:14:25;100019.80;;;13.90;76.49
74403;BME280;62837;51.082;13.744;2023-04-29T09:16:56;100018.29;;;13.93;76.73
74403;BME280;62837;51.082;13.744;2023-04-29T09:19:30;100018.98;;;13.94;76.68
74403;BME280;62837;51.082;13.744;2023-04-29T09:22:02;100023.71;;;13.91;76.47
74403;BME280;62837;51.082;13.744;2023-04-29T09:24:32;100024.48;;;13.86;76.46
74403;BME280;62837;51.082;13.744;2023-04-29T09:27:02;100029.73;;;13.78;76.05
74403;BME280;62837;51.082;13.744;2023-04-29T09:29:34;100032.36;;;13.75;76.24
74403;BME280;62837;51.082;13.744;2023-04-29T09:32:20;100035.05;;;13.70;76.27
74403;BME280;62837;51.082;13.744;2023-04-29T09:34:51;100034.77;;;13.70;76.77
74403;BME280;62837;51.082;13.744;2023-04-29T09:37:26;100037.20;;;13.73;76.81
74403;BME280;62837;51.082;13.744;2023-04-29T09:39:58;100039.90;;;13.80;77.06
74403;BME280;62837;51.082;13.744;2023-04-29T09:42:29;100042.00;;;13.85;77.05
74403;BME280;62837;51.082;13.744;2023-04-29T09:45:11;100043.42;;;13.89;76.50
74403;BME280;62837;51.082;13.744;2023-04-29T09:47:42;100044.27;;;13.91;76.26
74403;BME280;62837;51.082;13.744;2023-04-29T09:50:15;100044.38;;;13.92;76.20
74403;BME280;62837;51.082;13.744;2023-04-29T09:52:47;100047.02;;;13.94;75.92
74403;BME280;62837;51.082;13.744;2023-04-29T09:55:18;100052.57;;;13.98;76.20
74403;BME280;62837;51.082;13.744;2023-04-29T09:57:49;100054.21;;;14.06;76.17
74403;BME280;62837;51.082;13.744;2023-04-29T10:00:20;100058.66;;;14.16;76.04
74403;BME280;62837;51.082;13.744;2023-04-29T10:02:52;100055.20;;;14.25;75.86
74403;BME280;62837;51.082;13.744;2023-04-29T10:05:28;100060.09;;;14.34;75.92
74403;BME280;62837;51.082;13.744;2023-04-29T10:08:00;100055.77;;;14.37;75.75
74403;BME280;62837;51.082;13.744;2023-04-29T10:10:31;100060.66;;;14.40;75.65
74403;BME280;62837;51.082;13.744;2023-04-29T10:13:02;100061.05;;;14.47;75.22
74403;BME280;62837;51.082;13.744;2023-04-29T10:15:37;100064.45;;;14.54;74.91
74403;BME280;62837;51.082;13.744;2023-04-29T10:18:17;100064.52;;;14.62;74.76
74403;BME280;62837;51.082;13.744;2023-04-29T10:20:48;100065.14;;;14.68;74.82
74403;BME280;62837;51.082;13.744;2023-04-29T10:23:20;100072.05;;;14.68;74.57
74403;BME280;62837;51.082;13.744;2023-04-29T10:25:53;100070.27;;;14.69;74.32
74403;BME280;62837;51.082;13.744;2023-04-29T10:28:26;100072.70;;;14.64;73.28
74403;BME280;62837;51.082;13.744;2023-04-29T10:31:02;100080.75;;;14.61;72.65
74403;BME280;62837;51.082;13.744;2023-04-29T10:33:36;100079.18;;;14.58;72.45
74403;BME280;62837;51.082;13.744;2023-04-29T10:36:08;100077.75;;;14.58;72.24
74403;BME280;62837;51.082;13.744;2023-04-29T10:38:41;100082.30;;;14.57;72.18
74403;BME280;62837;51.082;13.744;2023-04-29T10:41:19;100083.17;;;14.57;72.14
74403;BME280;62837;51.082;13.744;2023-04-29T10:43:54;100089.04;;;14.57;72.30
74403;BME280;62837;51.082;13.744;2023-04-29T10:46:26;100087.88;;;14.61;71.90
74403;BME280;62837;51.082;13.744;2023-04-29T10:49:01;100090.05;;;14.71;71.51
74403;BME280;62837;51.082;13.744;2023-04-29T10:51:34;100087.60;;;14.82;71.31
74403;BME280;62837;51.082;13.744;2023-04-29T10:54:08;100087.73;;;14.91;71.05
74403;BME280;62837;51.082;13.744;2023-04-29T10:56:45;100087.77;;;14.96;70.91
74403;BME280;62837;51.082;13.744;2023-04-29T10:59:18;100094.43;;;15.03;70.80
74403;BME280;62837;51.082;13.744;2023-04-29T11:01:51;100089.91;;;15.10;70.62
74403;BME280;62837;51.082;13.744;2023-04-29T11:04:23;100100.70;;;15.13;69.78
74403;BME280;62837;51.082;13.744;2023-04-29T11:06:55;100094.29;;;15.10;69.28
74403;BME280;62837;51.082;13.744;2023-04-29T11:09:29;100095.27;;;15.06;68.83
74403;BME280;62837;51.082;13.744;2023-04-29T11:12:03;100101.42;;;15.03;68.79
74403;BME280;62837;51.082;13.744;2023-04-29T11:14:34;100102.04;;;14.97;68.77
74403;BME280;62837;51.082;13.744;2023-04-29T11:17:09;100109.73;;;14.93;69.09
74403;BME280;62837;51.082;13.744;2023-04-29T11:19:43;100115.08;;;14.90;68.88
74403;BME280;62837;51.082;13.744;2023-04-29T11:22:25;100115.89;;;14.82;68.92
74403;BME280;62837;51.082;13.744;2023-04-29T11:24:58;100120.73;;;14.76;68.66
74403;BME280;62837;51.082;13.744;2023-04-29T11:27:32;100116.65;;;14.68;68.51
74403;BME280;62837;51.082;13.744;2023-04-29T11:30:05;100120.52;;;14.69;68.83
74403;BME280;62837;51.082;13.744;2023-04-29T11:32:37;100120.58;;;14.79;68.96
74403;BME280;62837;51.082;13.744;2023-04-29T11:35:10;100120.45;;;14.90;68.14
74403;BME280;62837;51.082;13.744;2023-04-29T11:37:42;100125.27;;;15.00;67.91
74403;BME280;62837;51.082;13.744;2023-04-29T11:40:15;100129.60;;;15.13;67.85
74403;BME280;62837;51.082;13.744;2023-04-29T11:42:47;100135.37;;;15.26;67.96
74403;BME280;62837;51.082;13.744;2023-04-29T11:45:19;100132.72;;;15.34;67.72
74403;BME280;62837;51.082;13.744;2023-04-29T11:47:50;100133.46;;;15.40;67.37
74403;BME280;62837;51.082;13.744;2023-04-29T11:50:24;100132.80;;;15.54;66.32
74403;BME280;62837;51.082;13.744;2023-04-29T11:52:58;100131.89;;;15.72;65.56
74403;BME280;62837;51.082;13.744;2023-04-29T11:55:30;100131.29;;;15.79;64.97
74403;BME280;62837;51.082;13.744;2023-04-29T11:58:00;100138.64;;;15.84;65.00
74403;BME280;62837;51.082;13.744;2023-04-29T12:00:33;100141.60;;;15.86;64.72
74403;BME280;62837;51.082;13.744;2023-04-29T12:03:13;100144.27;;;15.85;64.91
74403;BME280;62837;51.082;13.744;2023-04-29T12:05:48;100146.51;;;15.81;64.32
74403;BME280;62837;51.082;13.744;2023-04-29T12:08:21;100145.94;;;15.79;64.32
74403;BME280;62837;51.082;13.744;2023-04-29T12:10:51;100147.00;;;15.78;64.16
74403;BME280;62837;51.082;13.744;2023-04-29T12:13:23;100154.05;;;15.78;64.04
74403;BME280;62837;51.082;13.744;2023-04-29T12:15:56;100156.49;;;15.73;64.24
74403;BME280;62837;51.082;13.744;2023-04-29T12:18:29;100160.73;;;15.67;64.25
74403;BME280;62837;51.082;13.744;2023-04-29T12:21:00;100159.70;;;15.60;64.43
74403;BME280;62837;51.082;13.744;2023-04-29T12:23:31;100177.09;;;15.55;64.16
74403;BME280;62837;51.082;13.744;2023-04-29T12:26:02;100179.20;;;15.47;64.25
74403;BME280;62837;51.082;13.744;2023-04-29T12:28:33;100181.30;;;15.39;64.37
74403;BME280;62837;51.082;13.744;2023-04-29T12:31:04;100187.30;;;15.33;64.63
74403;BME280;62837;51.082;13.744;2023-04-29T12:33:35;100186.89;;;15.30;64.75
74403;BME280;62837;51.082;13.744;2023-04-29T12:36:16;100195.29;;;15.24;64.75
74403;BME280;62837;51.082;13.744;2023-04-29T12:38:48;100201.11;;;15.13;64.68
74403;BME280;62837;51.082;13.744;2023-04-29T12:41:34;100204.68;;;14.95;65.01
74403;BME280;62837;51.082;13.744;2023-04-29T12:44:06;100205.48;;;14.81;65.29
74403;BME280;62837;51.082;13.744;2023-04-29T12:46:38;100207.78;;;14.78;66.10
74403;BME280;62837;51.082;13.744;2023-04-29T12:49:09;100209.36;;;14.75;66.27
74403;BME280;62837;51.082;13.744;2023-04-29T12:51:40;100213.67;;;14.64;65.86
74403;BME280;62837;51.082;13.744;2023-04-29T12:54:11;100221.89;;;14.48;66.18
74403;BME280;62837;51.082;13.744;2023-04-29T12:56:42;100217.09;;;14.37;66.49
74403;BME280;62837;51.082;13.744;2023-04-29T12:59:13;100231.80;;;14.36;66.64
74403;BME280;62837;51.082;13.744;2023-04-29T13:01:43;100233.13;;;14.26;66.73
74403;BME280;62837;51.082;13.744;2023-04-29T13:04:14;100235.05;;;14.14;66.85
74403;BME280;62837;51.082;13.744;2023-04-29T13:06:45;100232.96;;;14.00;67.12
74403;BME280;62837;51.082;13.744;2023-04-29T13:09:16;100238.61;;;13.88;67.49
74403;BME280;62837;51.082;13.744;2023-04-29T13:11:47;100240.71;;;13.77;67.97
74403;BME280;62837;51.082;13.744;2023-04-29T13:14:18;100246.90;;;13.66;68.20
74403;BME280;62837;51.082;13.744;2023-04-29T13:16:49;100245.73;;;13.59;68.28
74403;BME280;62837;51.082;13.744;2023-04-29T13:19:20;100247.40;;;13.53;68.53